sensor_id;sensor_type;location;lat;lon;timestamp;pressure;altitude;pressure_sealevel;temperature;humidity
32452;BME280;45528;52.102;5.242;2023-02-19T00:02:26;101338.0;;;16.93;62.16
32452;BME280;45528;52.102;5.242;2023-02-19T00:04:04;101335.0;;;17.16;61.54
32452;BME280;45528;52.102;5.242;2023-02-19T00:05:41;101346.0;;;17.2;61.42
32452;BME280;45528;52.102;5.242;2023-02-19T00:08:56;101339.0;;;16.64;62.54
32452;BME280;45528;52.102;5.242;2023-02-19T00:10:33;101336.0;;;16.88;62.35
32452;BME280;45528;52.102;5.242;2023-02-19T00:12:09;101346.0;;;17.05;61.92
32452;BME280;45528;52.102;5.242;2023-02-19T00:15:25;101344.0;;;16.72;62.31
32452;BME280;45528;52.102;5.242;2023-02-19T00:17:02;101342.0;;;16.68;62.77
32452;BME280;45528;52.102;5.242;2023-02-19T00:18:38;101348.0;;;16.77;62.74
32452;BME280;45528;52.102;5.242;2023-02-19T00:20:15;101352.0;;;16.77;62.27
32452;BME280;45528;52.102;5.242;2023-02-19T00:23:29;101353.0;;;17.06;61.82
32452;BME280;45528;52.102;5.242;2023-02-19T00:25:06;101352.0;;;16.97;62.0
32452;BME280;45528;52.102;5.242;2023-02-19T00:26:44;101355.0;;;16.84;62.5
32452;BME280;45528;52.102;5.242;2023-02-19T00:29:58;101349.0;;;16.56;63.25
32452;BME280;45528;52.102;5.242;2023-02-19T00:31:34;101355.0;;;16.14;64.83
32452;BME280;45528;52.102;5.242;2023-02-19T00:33:11;101360.0;;;16.77;62.78
32452;BME280;45528;52.102;5.242;2023-02-19T00:34:48;101355.0;;;16.59;63.06
32452;BME280;45528;52.102;5.242;2023-02-19T00:38:03;101353.0;;;16.64;63.04
32452;BME280;45528;52.102;5.242;2023-02-19T00:39:39;101355.0;;;16.52;63.17
32452;BME280;45528;52.102;5.242;2023-02-19T00:41:20;101355.0;;;16.36;63.99
32452;BME280;45528;52.102;5.242;2023-02-19T00:44:33;101355.0;;;16.63;63.07
32452;BME280;45528;52.102;5.242;2023-02-19T00:46:10;101361.0;;;16.5;63.55
32452;BME280;45528;52.102;5.242;2023-02-19T00:47:46;101363.0;;;16.66;62.95
32452;BME280;45528;52.102;5.242;2023-02-19T00:49:23;101363.0;;;16.7;62.81
32452;BME280;45528;52.102;5.242;2023-02-19T00:52:36;101360.0;;;16.84;62.45
32452;BME280;45528;52.102;5.242;2023-02-19T00:54:13;101359.0;;;16.84;62.4
32452;BME280;45528;52.102;5.242;2023-02-19T00:55:49;101364.0;;;16.93;62.01
32452;BME280;45528;52.102;5.242;2023-02-19T00:59:03;101365.0;;;16.72;62.66
32452;BME280;45528;52.102;5.242;2023-02-19T01:00:40;101369.0;;;16.93;61.98
32452;BME280;45528;52.102;5.242;2023-02-19T01:02:16;101370.0;;;16.61;62.75
32452;BME280;45528;52.102;5.242;2023-02-19T01:05:30;101370.0;;;16.79;62.29
32452;BME280;45528;52.102;5.242;2023-02-19T01:07:07;101373.0;;;16.25;63.93
32452;BME280;45528;52.102;5.242;2023-02-19T01:08:43;101374.0;;;16.63;62.83
32452;BME280;45528;52.102;5.242;2023-02-19T01:10:20;101373.0;;;16.43;62.95
32452;BME280;45528;52.102;5.242;2023-02-19T01:13:34;101374.0;;;16.89;62.04
32452;BME280;45528;52.102;5.242;2023-02-19T01:15:11;101376.0;;;16.56;62.26
32452;BME280;45528;52.102;5.242;2023-02-19T01:16:47;101377.0;;;16.34;63.25
32452;BME280;45528;52.102;5.242;2023-02-19T01:19:59;101384.0;;;16.36;63.37
32452;BME280;45528;52.102;5.242;2023-02-19T01:21:35;101388.0;;;16.66;62.35
32452;BME280;45528;52.102;5.242;2023-02-19T01:23:12;101385.0;;;16.43;63.08
32452;BME280;45528;52.102;5.242;2023-02-19T01:26:27;101383.0;;;16.84;61.89
32452;BME280;45528;52.102;5.242;2023-02-19T01:28:04;101389.0;;;17.0;61.24
32452;BME280;45528;52.102;5.242;2023-02-19T01:29:41;101392.0;;;16.59;62.17
32452;BME280;45528;52.102;5.242;2023-02-19T01:31:21;101393.0;;;16.47;62.49
32452;BME280;45528;52.102;5.242;2023-02-19T01:34:33;101384.0;;;16.16;62.99
32452;BME280;45528;52.102;5.242;2023-02-19T01:36:11;101390.0;;;16.52;62.51
32452;BME280;45528;52.102;5.242;2023-02-19T01:37:47;101395.0;;;16.8;61.41
32452;BME280;45528;52.102;5.242;2023-02-19T01:41:05;101394.0;;;16.7;61.63
32452;BME280;45528;52.102;5.242;2023-02-19T01:42:43;101389.0;;;16.93;60.93
32452;BME280;45528;52.102;5.242;2023-02-19T01:45:27;101394.0;;;16.86;61.02
32452;BME280;45528;52.102;5.242;2023-02-19T01:47:04;101394.0;;;17.05;60.7
32452;BME280;45528;52.102;5.242;2023-02-19T01:48:41;101389.0;;;16.84;61.08
32452;BME280;45528;52.102;5.242;2023-02-19T01:50:18;101395.0;;;16.79;61.27
32452;BME280;45528;52.102;5.242;2023-02-19T01:53:41;101395.0;;;17.04;60.53
32452;BME280;45528;52.102;5.242;2023-02-19T01:55:19;101399.0;;;17.09;60.49
32452;BME280;45528;52.102;5.242;2023-02-19T01:56:56;101397.0;;;16.89;60.82
32452;BME280;45528;52.102;5.242;2023-02-19T01:58:35;101397.0;;;16.66;61.67
32452;BME280;45528;52.102;5.242;2023-02-19T02:01:52;101395.0;;;16.5;61.66
32452;BME280;45528;52.102;5.242;2023-02-19T02:03:29;101394.0;;;16.41;61.75
32452;BME280;45528;52.102;5.242;2023-02-19T02:05:09;101397.0;;;16.52;61.78
32452;BME280;45528;52.102;5.242;2023-02-19T02:06:53;101390.0;;;16.68;61.32
32452;BME280;45528;52.102;5.242;2023-02-19T02:11:56;101395.0;;;16.66;60.95
32452;BME280;45528;52.102;5.242;2023-02-19T02:13:33;101394.0;;;16.37;61.57
32452;BME280;45528;52.102;5.242;2023-02-19T02:15:12;101390.0;;;16.37;61.79
32452;BME280;45528;52.102;5.242;2023-02-19T02:18:44;101392.0;;;16.5;61.31
32452;BME280;45528;52.102;5.242;2023-02-19T02:20:35;101396.0;;;16.45;61.47
32452;BME280;45528;52.102;5.242;2023-02-19T02:22:31;101389.0;;;16.31;61.96
32452;BME280;45528;52.102;5.242;2023-02-19T02:24:29;101396.0;;;16.52;61.29
32452;BME280;45528;52.102;5.242;2023-02-19T02:26:24;101395.0;;;16.46;61.52
32452;BME280;45528;52.102;5.242;2023-02-19T02:28:42;101398.0;;;16.81;60.45
32452;BME280;45528;52.102;5.242;2023-02-19T02:30:31;101398.0;;;15.97;62.33
32452;BME280;45528;52.102;5.242;2023-02-19T02:32:16;101399.0;;;16.48;61.01
32452;BME280;45528;52.102;5.242;2023-02-19T02:35:44;101398.0;;;16.07;62.26
32452;BME280;45528;52.102;5.242;2023-02-19T02:37:22;101397.0;;;16.34;61.56
32452;BME280;45528;52.102;5.242;2023-02-19T02:39:04;101402.0;;;16.53;61.21
32452;BME280;45528;52.102;5.242;2023-02-19T02:40:46;101406.0;;;16.68;60.82
32452;BME280;45528;52.102;5.242;2023-02-19T02:42:26;101403.0;;;16.5;61.31
32452;BME280;45528;52.102;5.242;2023-02-19T02:45:40;101406.0;;;16.36;61.7
32452;BME280;45528;52.102;5.242;2023-02-19T02:47:43;101401.0;;;16.04;62.3
32452;BME280;45528;52.102;5.242;2023-02-19T02:49:23;101407.0;;;16.5;61.51
32452;BME280;45528;52.102;5.242;2023-02-19T02:51:08;101418.0;;;16.4;61.43
32452;BME280;45528;52.102;5.242;2023-02-19T02:56:47;101417.0;;;16.02;62.81
32452;BME280;45528;52.102;5.242;2023-02-19T02:58:27;101414.0;;;16.43;61.45
32452;BME280;45528;52.102;5.242;2023-02-19T03:00:05;101413.0;;;16.3;61.71
32452;BME280;45528;52.102;5.242;2023-02-19T03:02:21;101419.0;;;16.13;62.35
32452;BME280;45528;52.102;5.242;2023-02-19T03:04:02;101413.0;;;16.2;62.62
32452;BME280;45528;52.102;5.242;2023-02-19T03:05:59;101421.0;;;16.36;62.32
32452;BME280;45528;52.102;5.242;2023-02-19T03:07:43;101413.0;;;16.16;62.32
32452;BME280;45528;52.102;5.242;2023-02-19T03:19:23;101426.0;;;16.03;62.55
32452;BME280;45528;52.102;5.242;2023-02-19T03:21:03;101434.0;;;16.2;61.92
32452;BME280;45528;52.102;5.242;2023-02-19T03:22:44;101440.0;;;15.57;63.62
32452;BME280;45528;52.102;5.242;2023-02-19T03:26:11;101435.0;;;15.96;62.73
32452;BME280;45528;52.102;5.242;2023-02-19T03:27:49;101434.0;;;16.2;61.6
32452;BME280;45528;52.102;5.242;2023-02-19T03:29:30;101443.0;;;16.27;61.82
32452;BME280;45528;52.102;5.242;2023-02-19T03:31:09;101435.0;;;16.45;61.42
32452;BME280;45528;52.102;5.242;2023-02-19T03:32:49;101443.0;;;16.09;62.48
32452;BME280;45528;52.102;5.242;2023-02-19T03:36:12;101442.0;;;16.11;62.21
32452;BME280;45528;52.102;5.242;2023-02-19T03:38:01;101442.0;;;15.65;63.57
32452;BME280;45528;52.102;5.242;2023-02-19T03:39:43;101445.0;;;16.16;62.27
32452;BME280;45528;52.102;5.242;2023-02-19T03:41:28;101448.0;;;16.09;62.43
32452;BME280;45528;52.102;5.242;2023-02-19T03:43:14;101447.0;;;16.05;62.56
32452;BME280;45528;52.102;5.242;2023-02-19T03:46:54;101446.0;;;16.18;62.28
32452;BME280;45528;52.102;5.242;2023-02-19T03:48:36;101444.0;;;16.12;62.32
32452;BME280;45528;52.102;5.242;2023-02-19T03:50:18;101444.0;;;15.88;62.97
32452;BME280;45528;52.102;5.242;2023-02-19T03:52:00;101455.0;;;15.78;63.3
32452;BME280;45528;52.102;5.242;2023-02-19T03:53:51;101455.0;;;16.09;62.15
32452;BME280;45528;52.102;5.242;2023-02-19T03:57:18;101459.0;;;16.11;62.43
32452;BME280;45528;52.102;5.242;2023-02-19T03:59:01;101464.0;;;15.62;63.42
32452;BME280;45528;52.102;5.242;2023-02-19T04:00:47;101467.0;;;16.15;62.22
32452;BME280;45528;52.102;5.242;2023-02-19T04:02:28;101476.0;;;16.09;62.31
32452;BME280;45528;52.102;5.242;2023-02-19T04:04:14;101472.0;;;16.18;62.29
32452;BME280;45528;52.102;5.242;2023-02-19T04:07:40;101483.0;;;16.12;62.25
32452;BME280;45528;52.102;5.242;2023-02-19T04:09:22;101482.0;;;15.87;62.59
32452;BME280;45528;52.102;5.242;2023-02-19T04:11:01;101478.0;;;16.16;62.16
32452;BME280;45528;52.102;5.242;2023-02-19T04:12:42;101481.0;;;16.28;62.01
32452;BME280;45528;52.102;5.242;2023-02-19T04:16:08;101484.0;;;16.11;62.2
32452;BME280;45528;52.102;5.242;2023-02-19T04:17:59;101495.0;;;16.13;62.32
32452;BME280;45528;52.102;5.242;2023-02-19T04:19:39;101489.0;;;16.05;62.29
32452;BME280;45528;52.102;5.242;2023-02-19T04:21:18;101490.0;;;16.14;62.24
32452;BME280;45528;52.102;5.242;2023-02-19T04:22:57;101496.0;;;16.15;62.16
32452;BME280;45528;52.102;5.242;2023-02-19T04:26:19;101497.0;;;15.99;62.37
32452;BME280;45528;52.102;5.242;2023-02-19T04:27:58;101497.0;;;16.06;62.51
32452;BME280;45528;52.102;5.242;2023-02-19T04:29:35;101496.0;;;15.98;62.42
32452;BME280;45528;52.102;5.242;2023-02-19T04:31:12;101508.0;;;16.03;62.5
32452;BME280;45528;52.102;5.242;2023-02-19T04:34:26;101507.0;;;15.58;63.76
32452;BME280;45528;52.102;5.242;2023-02-19T04:36:04;101505.0;;;15.77;63.53
32452;BME280;45528;52.102;5.242;2023-02-19T04:37:42;101511.0;;;15.48;63.96
32452;BME280;45528;52.102;5.242;2023-02-19T04:40:57;101511.0;;;15.44;64.23
32452;BME280;45528;52.102;5.242;2023-02-19T04:42:33;101523.0;;;15.95;62.97
32452;BME280;45528;52.102;5.242;2023-02-19T04:44:10;101530.0;;;15.95;62.95
32452;BME280;45528;52.102;5.242;2023-02-19T04:45:47;101531.0;;;15.88;63.2
32452;BME280;45528;52.102;5.242;2023-02-19T04:49:00;101537.0;;;15.48;63.63
32452;BME280;45528;52.102;5.242;2023-02-19T04:50:38;101537.0;;;15.99;62.65
32452;BME280;45528;52.102;5.242;2023-02-19T04:52:14;101544.0;;;16.22;62.02
32452;BME280;45528;52.102;5.242;2023-02-19T04:55:27;101545.0;;;15.74;63.04
32452;BME280;45528;52.102;5.242;2023-02-19T04:57:04;101555.0;;;15.98;62.59
32452;BME280;45528;52.102;5.242;2023-02-19T04:58:41;101557.0;;;15.85;62.7
32452;BME280;45528;52.102;5.242;2023-02-19T05:01:57;101558.0;;;15.62;63.09
32452;BME280;45528;52.102;5.242;2023-02-19T05:03:34;101565.0;;;16.02;62.16
32452;BME280;45528;52.102;5.242;2023-02-19T05:05:11;101556.0;;;15.81;62.6
32452;BME280;45528;52.102;5.242;2023-02-19T05:06:47;101560.0;;;15.94;62.57
32452;BME280;45528;52.102;5.242;2023-02-19T05:10:01;101561.0;;;16.12;61.67
32452;BME280;45528;52.102;5.242;2023-02-19T05:11:38;101565.0;;;16.12;61.74
32452;BME280;45528;52.102;5.242;2023-02-19T05:13:14;101565.0;;;16.0;61.85
32452;BME280;45528;52.102;5.242;2023-02-19T05:16:27;101568.0;;;15.44;63.18
32452;BME280;45528;52.102;5.242;2023-02-19T05:18:03;101567.0;;;16.03;61.55
32452;BME280;45528;52.102;5.242;2023-02-19T05:19:40;101573.0;;;16.02;61.66
32452;BME280;45528;52.102;5.242;2023-02-19T05:22:54;101570.0;;;15.93;61.53
32452;BME280;45528;52.102;5.242;2023-02-19T05:24:31;101580.0;;;16.07;61.27
32452;BME280;45528;52.102;5.242;2023-02-19T05:26:11;101580.0;;;15.77;61.85
32452;BME280;45528;52.102;5.242;2023-02-19T05:27:48;101580.0;;;16.04;61.37
32452;BME280;45528;52.102;5.242;2023-02-19T05:31:04;101586.0;;;15.85;61.33
32452;BME280;45528;52.102;5.242;2023-02-19T05:32:41;101588.0;;;16.0;61.15
32452;BME280;45528;52.102;5.242;2023-02-19T05:34:18;101596.0;;;16.11;60.27
32452;BME280;45528;52.102;5.242;2023-02-19T05:37:31;101585.0;;;16.18;60.25
32452;BME280;45528;52.102;5.242;2023-02-19T05:39:10;101588.0;;;15.51;61.83
32452;BME280;45528;52.102;5.242;2023-02-19T05:40:47;101588.0;;;15.59;61.46
32452;BME280;45528;52.102;5.242;2023-02-19T05:42:24;101580.0;;;15.9;61.13
32452;BME280;45528;52.102;5.242;2023-02-19T05:45:38;101584.0;;;16.22;59.94
32452;BME280;45528;52.102;5.242;2023-02-19T05:47:14;101589.0;;;16.37;59.56
32452;BME280;45528;52.102;5.242;2023-02-19T05:48:52;101587.0;;;16.25;59.72
32452;BME280;45528;52.102;5.242;2023-02-19T05:52:08;101584.0;;;16.38;59.14
32452;BME280;45528;52.102;5.242;2023-02-19T05:53:44;101583.0;;;16.18;59.18
32452;BME280;45528;52.102;5.242;2023-02-19T05:55:21;101587.0;;;16.16;59.8
32452;BME280;45528;52.102;5.242;2023-02-19T05:56:58;101592.0;;;16.3;59.47
32452;BME280;45528;52.102;5.242;2023-02-19T06:00:13;101598.0;;;16.34;59.27
32452;BME280;45528;52.102;5.242;2023-02-19T06:01:52;101599.0;;;16.15;59.68
32452;BME280;45528;52.102;5.242;2023-02-19T06:03:29;101603.0;;;16.36;59.34
32452;BME280;45528;52.102;5.242;2023-02-19T06:06:43;101603.0;;;16.02;60.2
32452;BME280;45528;52.102;5.242;2023-02-19T06:08:20;101602.0;;;16.21;59.39
32452;BME280;45528;52.102;5.242;2023-02-19T06:09:57;101606.0;;;16.21;59.48
32452;BME280;45528;52.102;5.242;2023-02-19T06:13:11;101603.0;;;16.02;60.11
32452;BME280;45528;52.102;5.242;2023-02-19T06:14:47;101613.0;;;15.89;60.51
32452;BME280;45528;52.102;5.242;2023-02-19T06:16:24;101626.0;;;15.97;60.51
32452;BME280;45528;52.102;5.242;2023-02-19T06:18:01;101628.0;;;16.11;60.27
32452;BME280;45528;52.102;5.242;2023-02-19T06:21:15;101633.0;;;15.91;60.65
32452;BME280;45528;52.102;5.242;2023-02-19T06:22:52;101637.0;;;16.23;60.07
32452;BME280;45528;52.102;5.242;2023-02-19T06:24:30;101642.0;;;16.11;60.37
32452;BME280;45528;52.102;5.242;2023-02-19T06:27:46;101645.0;;;16.31;59.92
32452;BME280;45528;52.102;5.242;2023-02-19T06:29:23;101652.0;;;15.8;61.17
32452;BME280;45528;52.102;5.242;2023-02-19T06:31:00;101657.0;;;15.87;61.21
32452;BME280;45528;52.102;5.242;2023-02-19T06:32:37;101661.0;;;15.5;61.89
32452;BME280;45528;52.102;5.242;2023-02-19T06:35:52;101653.0;;;15.9;61.48
32452;BME280;45528;52.102;5.242;2023-02-19T06:37:28;101648.0;;;15.75;61.64
32452;BME280;45528;52.102;5.242;2023-02-19T06:39:05;101655.0;;;15.97;61.31
32452;BME280;45528;52.102;5.242;2023-02-19T06:42:18;101656.0;;;16.02;60.91
32452;BME280;45528;52.102;5.242;2023-02-19T06:43:55;101653.0;;;15.54;62.66
32452;BME280;45528;52.102;5.242;2023-02-19T06:45:32;101658.0;;;15.88;61.71
32452;BME280;45528;52.102;5.242;2023-02-19T06:47:09;101664.0;;;15.82;61.75
32452;BME280;45528;52.102;5.242;2023-02-19T06:50:23;101665.0;;;15.95;61.58
32452;BME280;45528;52.102;5.242;2023-02-19T06:52:01;101668.0;;;15.62;62.33
32452;BME280;45528;52.102;5.242;2023-02-19T06:53:37;101674.0;;;15.62;62.51
32452;BME280;45528;52.102;5.242;2023-02-19T06:56:51;101680.0;;;15.19;63.54
32452;BME280;45528;52.102;5.242;2023-02-19T06:58:29;101680.0;;;15.94;61.6
32452;BME280;45528;52.102;5.242;2023-02-19T07:00:07;101682.0;;;15.98;61.28
32452;BME280;45528;52.102;5.242;2023-02-19T07:03:21;101684.0;;;15.92;61.54
32452;BME280;45528;52.102;5.242;2023-02-19T07:04:58;101691.0;;;15.74;62.15
32452;BME280;45528;52.102;5.242;2023-02-19T07:06:35;101694.0;;;15.8;61.76
32452;BME280;45528;52.102;5.242;2023-02-19T07:08:11;101701.0;;;15.8;61.82
32452;BME280;45528;52.102;5.242;2023-02-19T07:11:25;101705.0;;;15.96;61.47
32452;BME280;45528;52.102;5.242;2023-02-19T07:13:03;101706.0;;;15.83;61.92
32452;BME280;45528;52.102;5.242;2023-02-19T07:14:40;101709.0;;;15.74;61.76
32452;BME280;45528;52.102;5.242;2023-02-19T07:17:54;101715.0;;;16.09;60.82
32452;BME280;45528;52.102;5.242;2023-02-19T07:19:31;101714.0;;;15.94;60.99
32452;BME280;45528;52.102;5.242;2023-02-19T07:21:10;101721.0;;;16.15;60.59
32452;BME280;45528;52.102;5.242;2023-02-19T07:22:48;101721.0;;;16.22;60.51
32452;BME280;45528;52.102;5.242;2023-02-19T07:26:03;101724.0;;;16.31;60.23
32452;BME280;45528;52.102;5.242;2023-02-19T07:27:42;101727.0;;;16.34;60.37
32452;BME280;45528;52.102;5.242;2023-02-19T07:29:18;101731.0;;;15.76;61.72
32452;BME280;45528;52.102;5.242;2023-02-19T07:32:39;101738.0;;;15.49;62.16
32452;BME280;45528;52.102;5.242;2023-02-19T07:34:16;101734.0;;;16.15;60.87
32452;BME280;45528;52.102;5.242;2023-02-19T07:35:52;101742.0;;;16.18;60.85
32452;BME280;45528;52.102;5.242;2023-02-19T07:37:29;101740.0;;;16.09;61.0
32452;BME280;45528;52.102;5.242;2023-02-19T07:40:49;101745.0;;;16.03;61.08
32452;BME280;45528;52.102;5.242;2023-02-19T07:42:25;101749.0;;;16.15;60.93
32452;BME280;45528;52.102;5.242;2023-02-19T07:44:02;101747.0;;;16.36;60.33
32452;BME280;45528;52.102;5.242;2023-02-19T07:47:15;101751.0;;;16.27;60.49
32452;BME280;45528;52.102;5.242;2023-02-19T07:48:51;101756.0;;;16.28;60.57
32452;BME280;45528;52.102;5.242;2023-02-19T07:50:27;101757.0;;;16.15;60.91
32452;BME280;45528;52.102;5.242;2023-02-19T07:52:03;101765.0;;;15.73;62.24
32452;BME280;45528;52.102;5.242;2023-02-19T07:55:16;101766.0;;;16.0;61.59
32452;BME280;45528;52.102;5.242;2023-02-19T07:56:52;101769.0;;;16.11;61.34
32452;BME280;45528;52.102;5.242;2023-02-19T07:58:29;101771.0;;;16.2;61.08
32452;BME280;45528;52.102;5.242;2023-02-19T08:03:01;101770.0;;;16.22;61.08
32452;BME280;45528;52.102;5.242;2023-02-19T08:04:38;101781.0;;;15.76;62.12
32452;BME280;45528;52.102;5.242;2023-02-19T08:07:53;101783.0;;;16.09;61.08
32452;BME280;45528;52.102;5.242;2023-02-19T08:09:29;101784.0;;;15.72;61.98
32452;BME280;45528;52.102;5.242;2023-02-19T08:13:29;101777.0;;;16.04;61.45
32452;BME280;45528;52.102;5.242;2023-02-19T08:15:06;101791.0;;;15.91;61.5
32452;BME280;45528;52.102;5.242;2023-02-19T08:18:26;101794.0;;;16.09;61.18
32452;BME280;45528;52.102;5.242;2023-02-19T08:20:04;101802.0;;;16.27;60.87
32452;BME280;45528;52.102;5.242;2023-02-19T08:21:41;101806.0;;;16.29;60.75
32452;BME280;45528;52.102;5.242;2023-02-19T08:24:56;101814.0;;;16.06;61.33
32452;BME280;45528;52.102;5.242;2023-02-19T08:26:32;101812.0;;;16.12;61.11
32452;BME280;45528;52.102;5.242;2023-02-19T08:28:10;101819.0;;;15.64;62.53
32452;BME280;45528;52.102;5.242;2023-02-19T08:29:47;101823.0;;;16.18;61.23
32452;BME280;45528;52.102;5.242;2023-02-19T08:33:00;101827.0;;;15.99;61.8
32452;BME280;45528;52.102;5.242;2023-02-19T08:34:37;101826.0;;;15.95;61.93
32452;BME280;45528;52.102;5.242;2023-02-19T08:36:13;101822.0;;;16.22;61.15
32452;BME280;45528;52.102;5.242;2023-02-19T08:39:31;101827.0;;;16.32;60.95
32452;BME280;45528;52.102;5.242;2023-02-19T08:41:10;101835.0;;;16.31;60.99
32452;BME280;45528;52.102;5.242;2023-02-19T08:42:47;101833.0;;;16.45;60.94
32452;BME280;45528;52.102;5.242;2023-02-19T08:44:24;101834.0;;;16.46;60.99
32452;BME280;45528;52.102;5.242;2023-02-19T08:47:38;101833.0;;;16.43;61.05
32452;BME280;45528;52.102;5.242;2023-02-19T08:49:15;101846.0;;;16.21;61.73
32452;BME280;45528;52.102;5.242;2023-02-19T08:50:53;101844.0;;;16.28;61.15
32452;BME280;45528;52.102;5.242;2023-02-19T08:54:07;101838.0;;;16.27;61.19
32452;BME280;45528;52.102;5.242;2023-02-19T08:55:44;101839.0;;;16.27;61.47
32452;BME280;45528;52.102;5.242;2023-02-19T08:57:20;101842.0;;;16.28;61.14
32452;BME280;45528;52.102;5.242;2023-02-19T09:00:32;101843.0;;;16.2;61.58
32452;BME280;45528;52.102;5.242;2023-02-19T09:02:08;101847.0;;;16.18;61.16
32452;BME280;45528;52.102;5.242;2023-02-19T09:03:44;101845.0;;;16.34;61.03
32452;BME280;45528;52.102;5.242;2023-02-19T09:05:20;101843.0;;;16.37;60.77
32452;BME280;45528;52.102;5.242;2023-02-19T09:08:33;101842.0;;;16.43;60.65
32452;BME280;45528;52.102;5.242;2023-02-19T09:10:10;101843.0;;;16.23;60.92
32452;BME280;45528;52.102;5.242;2023-02-19T09:11:48;101839.0;;;16.25;61.2
32452;BME280;45528;52.102;5.242;2023-02-19T09:15:03;101836.0;;;16.29;60.89
32452;BME280;45528;52.102;5.242;2023-02-19T09:16:39;101844.0;;;16.43;60.44
32452;BME280;45528;52.102;5.242;2023-02-19T09:18:16;101859.0;;;16.61;60.28
32452;BME280;45528;52.102;5.242;2023-02-19T09:19:53;101866.0;;;16.16;60.8
32452;BME280;45528;52.102;5.242;2023-02-19T09:23:06;101861.0;;;16.27;60.85
32452;BME280;45528;52.102;5.242;2023-02-19T09:24:43;101862.0;;;16.09;61.13
32452;BME280;45528;52.102;5.242;2023-02-19T09:26:19;101857.0;;;16.65;60.05
32452;BME280;45528;52.102;5.242;2023-02-19T09:31:12;101870.0;;;16.46;60.15
32452;BME280;45528;52.102;5.242;2023-02-19T09:32:50;101882.0;;;16.16;60.97
32452;BME280;45528;52.102;5.242;2023-02-19T09:36:04;101896.0;;;16.27;60.73
32452;BME280;45528;52.102;5.242;2023-02-19T09:37:42;101903.0;;;16.39;60.6
32452;BME280;45528;52.102;5.242;2023-02-19T09:39:20;101916.0;;;16.36;60.5
32452;BME280;45528;52.102;5.242;2023-02-19T09:40:57;101911.0;;;16.7;59.33
32452;BME280;45528;52.102;5.242;2023-02-19T09:44:24;101914.0;;;16.32;59.93
32452;BME280;45528;52.102;5.242;2023-02-19T09:46:07;101915.0;;;16.41;59.7
32452;BME280;45528;52.102;5.242;2023-02-19T09:48:04;101926.0;;;16.5;59.57
32452;BME280;45528;52.102;5.242;2023-02-19T09:49:50;101928.0;;;16.71;59.33
32452;BME280;45528;52.102;5.242;2023-02-19T09:51:30;101926.0;;;16.21;60.24
32452;BME280;45528;52.102;5.242;2023-02-19T09:55:00;101934.0;;;16.64;59.43
32452;BME280;45528;52.102;5.242;2023-02-19T09:56:38;101936.0;;;16.86;58.98
32452;BME280;45528;52.102;5.242;2023-02-19T09:58:22;101941.0;;;16.63;59.3
32452;BME280;45528;52.102;5.242;2023-02-19T10:00:05;101948.0;;;16.57;59.23
32452;BME280;45528;52.102;5.242;2023-02-19T10:02:01;101946.0;;;16.84;58.93
32452;BME280;45528;52.102;5.242;2023-02-19T10:05:22;101942.0;;;16.87;58.24
32452;BME280;45528;52.102;5.242;2023-02-19T10:07:03;101952.0;;;16.79;58.55
32452;BME280;45528;52.102;5.242;2023-02-19T10:08:39;101957.0;;;16.14;59.83
32452;BME280;45528;52.102;5.242;2023-02-19T10:10:22;101966.0;;;16.77;59.04
32452;BME280;45528;52.102;5.242;2023-02-19T10:13:53;101972.0;;;16.91;58.63
32452;BME280;45528;52.102;5.242;2023-02-19T10:15:44;101973.0;;;16.53;59.09
32452;BME280;45528;52.102;5.242;2023-02-19T10:17:24;101969.0;;;16.64;58.77
32452;BME280;45528;52.102;5.242;2023-02-19T10:19:08;101974.0;;;17.07;58.62
32452;BME280;45528;52.102;5.242;2023-02-19T10:20:46;101982.0;;;16.91;59.27
32452;BME280;45528;52.102;5.242;2023-02-19T10:24:04;101986.0;;;17.14;58.43
32452;BME280;45528;52.102;5.242;2023-02-19T10:25:44;101983.0;;;17.3;58.0
32452;BME280;45528;52.102;5.242;2023-02-19T10:27:22;101980.0;;;17.18;57.31
32452;BME280;45528;52.102;5.242;2023-02-19T10:29:03;101984.0;;;17.25;57.57
32452;BME280;45528;52.102;5.242;2023-02-19T10:32:22;101986.0;;;17.18;57.03
32452;BME280;45528;52.102;5.242;2023-02-19T10:34:01;102003.0;;;17.09;57.48
32452;BME280;45528;52.102;5.242;2023-02-19T10:35:52;102008.0;;;17.04;57.71
32452;BME280;45528;52.102;5.242;2023-02-19T10:37:31;102008.0;;;16.47;58.78
32452;BME280;45528;52.102;5.242;2023-02-19T10:41:16;102010.0;;;16.73;58.11
32452;BME280;45528;52.102;5.242;2023-02-19T10:42:56;102016.0;;;16.7;57.75
32452;BME280;45528;52.102;5.242;2023-02-19T10:44:41;102011.0;;;16.72;58.08
32452;BME280;45528;52.102;5.242;2023-02-19T10:46:20;102005.0;;;16.45;58.54
32452;BME280;45528;52.102;5.242;2023-02-19T10:47:59;102003.0;;;16.57;58.38
32452;BME280;45528;52.102;5.242;2023-02-19T10:51:26;102011.0;;;16.57;57.75
32452;BME280;45528;52.102;5.242;2023-02-19T10:53:19;102012.0;;;16.68;58.01
32452;BME280;45528;52.102;5.242;2023-02-19T10:55:14;102017.0;;;16.7;58.24
32452;BME280;45528;52.102;5.242;2023-02-19T10:57:15;102025.0;;;16.5;58.84
32452;BME280;45528;52.102;5.242;2023-02-19T10:59:14;102013.0;;;16.4;58.98
32452;BME280;45528;52.102;5.242;2023-02-19T11:01:14;102013.0;;;16.54;58.99
32452;BME280;45528;52.102;5.242;2023-02-19T11:03:26;102010.0;;;16.48;59.09
32452;BME280;45528;52.102;5.242;2023-02-19T11:05:13;102007.0;;;16.28;59.58
32452;BME280;45528;52.102;5.242;2023-02-19T11:06:52;102003.0;;;16.34;59.82
32452;BME280;45528;52.102;5.242;2023-02-19T11:10:25;102002.0;;;16.32;59.77
32452;BME280;45528;52.102;5.242;2023-02-19T11:12:05;101999.0;;;16.34;60.41
32452;BME280;45528;52.102;5.242;2023-02-19T11:13:43;102001.0;;;16.48;60.01
32452;BME280;45528;52.102;5.242;2023-02-19T11:15:21;102005.0;;;16.65;59.2
32452;BME280;45528;52.102;5.242;2023-02-19T11:18:39;102010.0;;;16.55;59.09
32452;BME280;45528;52.102;5.242;2023-02-19T11:20:16;102018.0;;;16.43;59.64
32452;BME280;45528;52.102;5.242;2023-02-19T11:21:54;102016.0;;;16.52;59.57
32452;BME280;45528;52.102;5.242;2023-02-19T11:23:33;102020.0;;;16.15;59.66
32452;BME280;45528;52.102;5.242;2023-02-19T11:26:56;102020.0;;;16.06;60.15